Time;durP1;ratioP1;P1;durP2;ratioP2;P2;SDS_P1;SDS_P2;PMS_P1;PMS_P2;Temp;Humidity;BMP_temperature;BMP_pressure;BME280_temperature;BME280_humidity;BME280_pressure;Samples;Min_cycle;Max_cycle;Signal;HPM_P1;HPM_P2
2022/05/25 00:00:28;;;;;;;9.57;5.97;;;;;;;;;;6191634;23;20009;-91
2022/05/25 00:02:55;;;;;;;8.80;5.93;;;;;;;;;;6218143;23;20000;-87
2022/05/25 00:05:21;;;;;;;7.03;6.00;;;;;;;;;;6191844;23;20008;-88
2022/05/25 00:07:47;;;;;;;7.03;5.10;;;;;;;;;;6218146;23;20001;-87
2022/05/25 00:10:14;;;;;;;7.47;5.47;;;;;;;;;;6191913;23;20013;-88
2022/05/25 00:12:41;;;;;;;9.38;5.38;;;;;;;;;;6218045;23;20019;-87
2022/05/25 00:15:08;;;;;;;7.50;5.28;;;;;;;;;;6191745;23;20020;-87
2022/05/25 00:17:34;;;;;;;9.88;5.60;;;;;;;;;;6191034;23;20000;-87
2022/05/25 00:20:01;;;;;;;6.13;5.53;;;;;;;;;;6191732;23;20009;-88
2022/05/25 00:22:39;;;;;;;7.18;5.00;;;;;;;;;;6191466;23;20004;-88
2022/05/25 00:25:05;;;;;;;6.20;5.50;;;;;;;;;;6191451;23;20005;-85
2022/05/25 00:27:32;;;;;;;6.90;5.15;;;;;;;;;;6217396;23;20050;-88
2022/05/25 00:29:58;;;;;;;6.57;5.25;;;;;;;;;;6217590;23;20058;-87
2022/05/25 00:32:24;;;;;;;7.43;5.05;;;;;;;;;;6191173;23;20012;-87
2022/05/25 00:34:51;;;;;;;8.45;6.60;;;;;;;;;;6191524;23;20013;-86
2022/05/25 00:37:17;;;;;;;8.48;5.82;;;;;;;;;;6186341;23;20434;-87
2022/05/25 00:39:43;;;;;;;7.70;5.68;;;;;;;;;;6185630;23;20008;-87
2022/05/25 00:42:09;;;;;;;5.88;5.10;;;;;;;;;;6186200;23;20488;-87
2022/05/25 00:44:35;;;;;;;6.38;5.60;;;;;;;;;;6186692;23;20429;-86
2022/05/25 00:47:02;;;;;;;7.95;5.47;;;;;;;;;;6185576;23;20005;-88
2022/05/25 00:49:29;;;;;;;6.32;5.72;;;;;;;;;;6186235;23;20009;-84
2022/05/25 00:52:04;;;;;;;8.48;5.47;;;;;;;;;;6187725;23;19997;-87
2022/05/25 00:54:30;;;;;;;10.13;6.60;;;;;;;;;;6185919;23;20103;-87
2022/05/25 00:56:59;;;;;;;8.77;6.30;;;;;;;;;;6187474;23;20350;-88
2022/05/25 00:59:27;;;;;;;7.57;6.05;;;;;;;;;;6185846;23;20092;-86
2022/05/25 01:01:54;;;;;;;6.90;4.95;;;;;;;;;;6186268;23;20009;-87
2022/05/25 01:04:20;;;;;;;7.30;5.85;;;;;;;;;;6186106;23;20342;-86
2022/05/25 01:07:07;;;;;;;5.93;5.32;;;;;;;;;;6186169;23;20016;-87
2022/05/25 01:09:58;;;;;;;7.60;5.40;;;;;;;;;;6184367;23;20426;-87
2022/05/25 01:12:28;;;;;;;7.38;5.13;;;;;;;;;;6185961;23;20009;-87
2022/05/25 01:15:01;;;;;;;7.72;4.82;;;;;;;;;;6185950;23;20128;-85
2022/05/25 01:17:50;;;;;;;6.50;5.20;;;;;;;;;;6186104;23;20008;-88
2022/05/25 01:20:19;;;;;;;6.07;5.28;;;;;;;;;;6186934;23;20311;-83
2022/05/25 01:22:56;;;;;;;7.32;5.40;;;;;;;;;;6185868;23;20012;-85
2022/05/25 01:25:31;;;;;;;7.40;5.40;;;;;;;;;;6185925;23;20036;-86
2022/05/25 01:28:01;;;;;;;6.85;5.20;;;;;;;;;;6185862;23;20092;-87
2022/05/25 01:30:37;;;;;;;6.85;5.07;;;;;;;;;;6185662;23;20001;-88
2022/05/25 01:33:11;;;;;;;8.30;5.68;;;;;;;;;;6188066;23;20032;-88
2022/05/25 01:35:48;;;;;;;8.02;5.35;;;;;;;;;;6186248;23;20099;-86
2022/05/25 01:38:32;;;;;;;7.78;5.70;;;;;;;;;;6185495;23;20017;-87
2022/05/25 01:41:11;;;;;;;6.55;4.80;;;;;;;;;;6185327;23;20005;-86
2022/05/25 01:43:52;;;;;;;6.45;5.53;;;;;;;;;;6185328;23;20029;-86
2022/05/25 01:46:27;;;;;;;8.23;5.18;;;;;;;;;;6185457;23;20008;-86
2022/05/25 01:48:55;;;;;;;6.18;5.55;;;;;;;;;;6185793;23;20009;-87
2022/05/25 01:51:26;;;;;;;7.40;5.47;;;;;;;;;;6188438;23;20028;-87
2022/05/25 01:53:55;;;;;;;7.30;5.25;;;;;;;;;;6185286;23;20080;-86
2022/05/25 01:56:22;;;;;;;7.85;5.53;;;;;;;;;;6185099;23;20013;-83
2022/05/25 01:58:52;;;;;;;6.07;4.93;;;;;;;;;;6186928;23;20453;-87
2022/05/25 02:01:18;;;;;;;9.07;7.00;;;;;;;;;;6186917;23;20423;-86
2022/05/25 02:06:47;;;;;;;7.22;5.80;;;;;;;;;;6186985;23;20334;-87
2022/05/25 02:09:13;;;;;;;9.02;6.78;;;;;;;;;;6185455;23;20011;-86
2022/05/25 02:11:41;;;;;;;7.70;6.13;;;;;;;;;;6185448;23;20445;-87
2022/05/25 02:14:26;;;;;;;7.38;5.57;;;;;;;;;;6185051;23;20012;-86
2022/05/25 02:16:58;;;;;;;7.03;5.85;;;;;;;;;;6185156;23;20009;-84
2022/05/25 02:19:27;;;;;;;7.60;5.65;;;;;;;;;;6185409;23;20012;-88
2022/05/25 02:21:57;;;;;;;6.75;5.85;;;;;;;;;;6185505;23;20561;-87
2022/05/25 02:24:39;;;;;;;6.70;5.60;;;;;;;;;;6187683;23;20012;-87
2022/05/25 02:27:13;;;;;;;6.35;5.63;;;;;;;;;;6185889;23;20009;-87
2022/05/25 02:29:41;;;;;;;7.15;5.60;;;;;;;;;;6185914;23;20001;-88
2022/05/25 02:32:08;;;;;;;6.20;5.30;;;;;;;;;;6185388;23;20005;-87
2022/05/25 02:34:35;;;;;;;5.80;4.75;;;;;;;;;;6185076;23;20013;-88
2022/05/25 02:37:02;;;;;;;7.97;5.68;;;;;;;;;;6187493;23;20007;-88
2022/05/25 02:39:29;;;;;;;8.55;5.72;;;;;;;;;;6190381;23;20012;-88
2022/05/25 02:41:56;;;;;;;7.72;5.38;;;;;;;;;;6189854;23;20452;-83
2022/05/25 02:44:23;;;;;;;9.90;5.53;;;;;;;;;;6215979;23;20058;-88
2022/05/25 02:46:50;;;;;;;7.20;5.00;;;;;;;;;;6190234;23;20001;-88
2022/05/25 02:49:16;;;;;;;9.88;5.40;;;;;;;;;;6190484;23;20011;-88
2022/05/25 02:51:43;;;;;;;5.25;4.75;;;;;;;;;;6190479;23;20406;-88
2022/05/25 02:54:09;;;;;;;9.95;5.88;;;;;;;;;;6190276;23;20004;-88
2022/05/25 02:56:36;;;;;;;8.60;5.32;;;;;;;;;;6190479;23;20138;-87
2022/05/25 02:59:02;;;;;;;7.38;5.25;;;;;;;;;;6190583;23;20035;-87
2022/05/25 03:01:29;;;;;;;6.97;5.05;;;;;;;;;;6191097;23;20433;-88
2022/05/25 03:03:55;;;;;;;7.05;5.53;;;;;;;;;;6190514;23;20028;-84
2022/05/25 03:06:22;;;;;;;8.15;6.22;;;;;;;;;;6189822;23;20008;-84
2022/05/25 03:08:48;;;;;;;6.38;5.50;;;;;;;;;;6190078;23;20084;-84
2022/05/25 03:11:14;;;;;;;6.40;5.72;;;;;;;;;;6190658;23;20009;-87
2022/05/25 03:13:45;;;;;;;8.23;6.10;;;;;;;;;;6190104;23;20488;-88
2022/05/25 03:16:13;;;;;;;7.95;5.72;;;;;;;;;;6190141;23;20020;-87
2022/05/25 03:18:39;;;;;;;7.15;5.85;;;;;;;;;;6190061;23;20001;-83
2022/05/25 03:21:05;;;;;;;6.32;5.55;;;;;;;;;;6190035;23;20009;-87
2022/05/25 03:23:31;;;;;;;10.20;6.10;;;;;;;;;;6190154;23;20001;-87
2022/05/25 03:26:01;;;;;;;8.38;6.70;;;;;;;;;;6190172;23;20088;-88
2022/05/25 03:28:27;;;;;;;8.60;6.20;;;;;;;;;;6190342;23;20009;-85
2022/05/25 03:30:54;;;;;;;9.18;6.30;;;;;;;;;;6216783;23;20008;-87
2022/05/25 03:33:20;;;;;;;10.85;6.43;;;;;;;;;;6216494;23;20032;-88
2022/05/25 03:35:46;;;;;;;9.05;6.57;;;;;;;;;;6217457;23;20095;-87
2022/05/25 03:38:12;;;;;;;7.55;6.60;;;;;;;;;;6189270;23;20024;-86
2022/05/25 03:40:39;;;;;;;7.55;6.50;;;;;;;;;;6187471;23;20005;-87
2022/05/25 03:43:06;;;;;;;9.75;7.13;;;;;;;;;;6186749;23;20005;-87
2022/05/25 03:45:32;;;;;;;7.68;6.45;;;;;;;;;;6187300;23;20013;-88
2022/05/25 03:47:59;;;;;;;8.65;7.05;;;;;;;;;;6186753;23;20089;-82
2022/05/25 03:50:25;;;;;;;8.38;7.22;;;;;;;;;;6186061;23;20009;-91
2022/05/25 03:52:51;;;;;;;9.30;7.95;;;;;;;;;;6187904;23;20025;-80
2022/05/25 03:55:17;;;;;;;9.90;8.30;;;;;;;;;;6187106;23;20020;-89
2022/05/25 03:57:43;;;;;;;10.65;6.78;;;;;;;;;;6186792;23;20009;-90
2022/05/25 04:00:10;;;;;;;8.38;5.97;;;;;;;;;;6186087;23;20431;-90
2022/05/25 04:02:36;;;;;;;8.75;6.85;;;;;;;;;;6186356;23;20479;-83
2022/05/25 04:05:09;;;;;;;9.48;7.95;;;;;;;;;;6186470;23;20006;-84
2022/05/25 04:07:42;;;;;;;10.27;8.30;;;;;;;;;;6186345;23;20032;-92
2022/05/25 04:10:13;;;;;;;;;;;;;;;;;;6187242;23;20001;-93
2022/05/25 04:12:40;;;;;;;8.18;7.20;;;;;;;;;;6187699;23;19924;-91
2022/05/25 04:15:07;;;;;;;9.70;6.90;;;;;;;;;;6189943;23;20047;-90
2022/05/25 04:17:34;;;;;;;9.57;7.65;;;;;;;;;;6186816;23;20012;-88
2022/05/25 04:20:01;;;;;;;9.13;6.97;;;;;;;;;;6187254;23;20013;-89
2022/05/25 04:22:29;;;;;;;10.80;6.22;;;;;;;;;;6186769;23;20008;-90
2022/05/25 04:24:55;;;;;;;9.48;6.43;;;;;;;;;;6186972;23;20009;-89
2022/05/25 04:27:21;;;;;;;9.80;6.60;;;;;;;;;;6186541;23;20357;-89
2022/05/25 04:29:47;;;;;;;7.88;5.82;;;;;;;;;;6186868;23;20005;-89
2022/05/25 04:32:13;;;;;;;6.22;5.60;;;;;;;;;;6186993;23;20007;-90
2022/05/25 04:34:40;;;;;;;6.85;5.80;;;;;;;;;;6186676;23;20109;-89
2022/05/25 04:39:50;;;;;;;9.15;7.22;;;;;;;;;;6218079;23;20092;-90
2022/05/25 04:42:17;;;;;;;14.57;8.27;;;;;;;;;;6191697;23;20338;-90
2022/05/25 04:44:43;;;;;;;8.18;5.82;;;;;;;;;;6191717;23;20042;-89
2022/05/25 04:47:09;;;;;;;8.30;6.32;;;;;;;;;;6191471;23;20004;-90
2022/05/25 04:49:36;;;;;;;12.68;7.43;;;;;;;;;;6191754;23;20005;-90
2022/05/25 04:52:03;;;;;;;6.50;5.70;;;;;;;;;;6191726;23;20007;-90
2022/05/25 04:54:29;;;;;;;10.15;5.25;;;;;;;;;;6191583;23;20028;-90
2022/05/25 04:59:40;;;;;;;8.15;6.72;;;;;;;;;;6221618;23;20047;-90
2022/05/25 05:02:06;;;;;;;10.05;6.70;;;;;;;;;;6191773;23;20004;-88
2022/05/25 05:04:32;;;;;;;7.55;5.50;;;;;;;;;;6191337;23;20421;-90
2022/05/25 05:06:58;;;;;;;7.95;5.35;;;;;;;;;;6191760;23;20001;-88
2022/05/25 05:09:24;;;;;;;6.60;5.90;;;;;;;;;;6195810;23;19995;-88
2022/05/25 05:11:50;;;;;;;8.77;5.72;;;;;;;;;;6194343;23;20039;-88
2022/05/25 05:14:16;;;;;;;8.50;5.72;;;;;;;;;;6191395;23;20346;-89
2022/05/25 05:16:43;;;;;;;8.50;6.15;;;;;;;;;;6191770;23;20182;-88
2022/05/25 05:19:09;;;;;;;11.50;7.07;;;;;;;;;;6218931;23;20000;-88
2022/05/25 05:21:35;;;;;;;9.60;7.15;;;;;;;;;;6191797;23;20007;-89
2022/05/25 05:24:02;;;;;;;11.02;7.40;;;;;;;;;;6190962;23;20005;-92
2022/05/25 05:26:28;;;;;;;12.18;8.18;;;;;;;;;;6191129;23;20044;-92
2022/05/25 05:28:54;;;;;;;11.48;7.60;;;;;;;;;;6191236;23;20001;-92
2022/05/25 05:31:20;;;;;;;10.05;7.70;;;;;;;;;;6191084;23;20012;-91
2022/05/25 05:33:47;;;;;;;11.43;9.07;;;;;;;;;;6190760;23;20440;-84
2022/05/25 05:36:21;;;;;;;11.18;8.35;;;;;;;;;;6190080;23;20250;-92
2022/05/25 05:38:49;;;;;;;10.35;8.77;;;;;;;;;;6190414;23;20488;-93
2022/05/25 05:41:17;;;;;;;12.82;8.65;;;;;;;;;;6216788;23;20477;-83
2022/05/25 05:43:52;;;;;;;12.88;8.85;;;;;;;;;;6216947;23;20032;-88
2022/05/25 05:46:22;;;;;;;11.40;8.57;;;;;;;;;;6190773;23;20342;-93
2022/05/25 05:51:52;;;;;;;11.23;9.32;;;;;;;;;;6225100;23;20019;-94
2022/05/25 05:54:21;;;;;;;10.90;9.52;;;;;;;;;;6191062;23;20001;-94
2022/05/25 05:56:53;;;;;;;12.48;9.27;;;;;;;;;;6191119;23;20004;-92
2022/05/25 05:59:26;;;;;;;13.38;9.73;;;;;;;;;;6190476;23;20001;-93
2022/05/25 06:02:01;;;;;;;11.07;9.47;;;;;;;;;;6191111;23;20456;-94
2022/05/25 06:04:30;;;;;;;11.98;9.43;;;;;;;;;;6190597;23;20007;-92
2022/05/25 06:06:56;;;;;;;12.35;9.85;;;;;;;;;;6188473;23;20066;-90
2022/05/25 06:09:22;;;;;;;17.23;10.60;;;;;;;;;;6161509;23;20080;-91
2022/05/25 06:11:48;;;;;;;12.93;10.05;;;;;;;;;;6184712;23;20434;-76
2022/05/25 06:14:15;;;;;;;13.85;10.32;;;;;;;;;;6186807;23;20056;-91
2022/05/25 06:19:25;;;;;;;12.60;9.82;;;;;;;;;;6186867;23;20044;-90
2022/05/25 06:22:02;;;;;;;10.73;8.93;;;;;;;;;;6161602;23;20009;-93
2022/05/25 06:24:29;;;;;;;10.85;8.82;;;;;;;;;;6160011;23;20304;-91
2022/05/25 06:26:55;;;;;;;12.07;10.40;;;;;;;;;;6187122;23;20009;-92
2022/05/25 06:29:22;;;;;;;13.50;10.40;;;;;;;;;;6162152;23;20481;-93
2022/05/25 06:31:49;;;;;;;13.15;10.70;;;;;;;;;;6161102;23;20072;-93
2022/05/25 06:34:16;;;;;;;14.77;11.23;;;;;;;;;;6185758;23;20032;-81
2022/05/25 06:36:42;;;;;;;12.35;11.05;;;;;;;;;;6186035;23;20001;-81
2022/05/25 06:39:08;;;;;;;10.55;9.55;;;;;;;;;;6159751;23;20044;-81
2022/05/25 06:41:34;;;;;;;17.00;11.68;;;;;;;;;;6186196;23;20448;-81
2022/05/25 06:44:01;;;;;;;16.02;11.65;;;;;;;;;;6186413;23;20005;-86
2022/05/25 06:46:27;;;;;;;15.18;12.02;;;;;;;;;;6160871;23;20068;-87
2022/05/25 06:48:54;;;;;;;16.33;11.32;;;;;;;;;;6161296;23;20055;-88
2022/05/25 06:51:22;;;;;;;17.25;12.20;;;;;;;;;;6160565;23;20005;-94
2022/05/25 06:53:49;;;;;;;11.32;10.10;;;;;;;;;;6160415;23;20005;-92
2022/05/25 06:56:16;;;;;;;14.93;11.52;;;;;;;;;;6160367;23;20044;-80
2022/05/25 06:58:43;;;;;;;13.27;11.68;;;;;;;;;;6186677;23;20008;-81
2022/05/25 07:01:09;;;;;;;13.70;11.02;;;;;;;;;;6186160;23;20001;-80
2022/05/25 07:03:36;;;;;;;11.65;9.90;;;;;;;;;;6160615;23;20510;-81
2022/05/25 07:06:10;;;;;;;12.07;10.27;;;;;;;;;;6185973;23;20075;-86
2022/05/25 07:08:36;;;;;;;15.75;11.38;;;;;;;;;;6164211;23;20037;-89
2022/05/25 07:11:02;;;;;;;11.88;10.63;;;;;;;;;;6136770;23;20005;-84
2022/05/25 07:13:32;;;;;;;14.30;9.77;;;;;;;;;;6160427;23;20009;-95
2022/05/25 07:15:59;;;;;;;12.80;9.30;;;;;;;;;;6132334;23;20451;-87
2022/05/25 07:18:26;;;;;;;10.05;8.27;;;;;;;;;;6131890;23;20033;-82
2022/05/25 07:20:52;;;;;;;11.80;8.18;;;;;;;;;;6131812;23;20375;-84
2022/05/25 07:23:19;;;;;;;13.10;8.23;;;;;;;;;;6131481;23;20343;-78
2022/05/25 07:25:46;;;;;;;10.85;7.75;;;;;;;;;;6157579;23;20009;-81
2022/05/25 07:28:12;;;;;;;9.10;7.15;;;;;;;;;;6131109;23;20080;-84
2022/05/25 07:30:39;;;;;;;9.57;6.35;;;;;;;;;;6157571;23;20025;-79
2022/05/25 07:33:06;;;;;;;9.30;6.90;;;;;;;;;;6158066;23;20036;-83
2022/05/25 07:35:32;;;;;;;9.43;6.88;;;;;;;;;;6131451;23;20109;-84
2022/05/25 07:37:58;;;;;;;9.55;7.03;;;;;;;;;;6131386;23;20040;-81
2022/05/25 07:40:31;;;;;;;7.50;5.28;;;;;;;;;;6130427;23;20088;-85
2022/05/25 07:43:00;;;;;;;6.07;4.07;;;;;;;;;;6157383;23;20012;-80
2022/05/25 07:45:26;;;;;;;8.15;4.85;;;;;;;;;;6158646;23;20002;-92
2022/05/25 07:47:54;;;;;;;7.53;4.90;;;;;;;;;;6132317;23;20031;-91
2022/05/25 07:50:23;;;;;;;9.70;5.88;;;;;;;;;;6157868;23;20085;-84
2022/05/25 07:52:51;;;;;;;10.43;4.93;;;;;;;;;;6131493;23;20006;-89
2022/05/25 07:55:18;;;;;;;9.95;6.18;;;;;;;;;;6132752;23;20478;-84
2022/05/25 07:57:44;;;;;;;11.60;6.47;;;;;;;;;;6132340;23;20002;-90
2022/05/25 08:00:11;;;;;;;8.93;6.47;;;;;;;;;;6132144;23;20092;-88
2022/05/25 08:05:43;;;;;;;6.68;5.45;;;;;;;;;;6157974;23;20029;-91
2022/05/25 08:08:12;;;;;;;13.65;6.40;;;;;;;;;;6148250;23;20438;-91
2022/05/25 08:10:38;;;;;;;14.32;7.43;;;;;;;;;;6161448;23;20063;-87
2022/05/25 08:13:05;;;;;;;8.85;7.18;;;;;;;;;;6187501;23;20001;-84
2022/05/25 08:15:33;;;;;;;9.10;7.13;;;;;;;;;;6161041;23;20434;-87
2022/05/25 08:17:59;;;;;;;7.10;5.57;;;;;;;;;;6161223;23;20033;-87
2022/05/25 08:20:26;;;;;;;8.85;7.10;;;;;;;;;;6187136;23;20005;-83
2022/05/25 08:22:52;;;;;;;7.90;6.80;;;;;;;;;;6161022;23;20046;-82
2022/05/25 08:25:19;;;;;;;9.70;6.88;;;;;;;;;;6187480;23;20079;-88
2022/05/25 08:27:45;;;;;;;11.13;6.90;;;;;;;;;;6161135;23;20055;-81
2022/05/25 08:30:13;;;;;;;12.85;7.07;;;;;;;;;;6161101;23;20431;-83
2022/05/25 08:32:42;;;;;;;11.10;6.97;;;;;;;;;;6187368;23;20005;-87
2022/05/25 08:35:08;;;;;;;14.63;7.57;;;;;;;;;;6188766;23;20009;-88
2022/05/25 08:37:35;;;;;;;7.80;6.25;;;;;;;;;;6162330;23;20088;-87
2022/05/25 08:40:02;;;;;;;9.10;7.00;;;;;;;;;;6162067;23;20464;-94
2022/05/25 08:42:29;;;;;;;11.68;6.97;;;;;;;;;;6162298;23;20016;-89
2022/05/25 08:44:56;;;;;;;7.35;5.95;;;;;;;;;;6163042;23;20011;-94
2022/05/25 08:47:22;;;;;;;9.13;6.47;;;;;;;;;;6162175;23;20009;-84
2022/05/25 08:49:51;;;;;;;7.60;6.03;;;;;;;;;;6161330;23;20012;-94
2022/05/25 08:52:20;;;;;;;7.25;6.55;;;;;;;;;;6161395;23;20005;-93
2022/05/25 08:54:46;;;;;;;6.90;6.05;;;;;;;;;;6187249;23;20009;-84
2022/05/25 08:57:15;;;;;;;6.25;5.65;;;;;;;;;;6162470;23;20356;-90
2022/05/25 09:00:00;;;;;;;6.70;6.00;;;;;;;;;;6165464;23;20012;-95
2022/05/25 09:02:56;;;;;;;8.05;7.30;;;;;;;;;;6174063;23;20338;-84
2022/05/25 09:05:38;;;;;;;9.90;6.90;;;;;;;;;;6139010;23;20005;-88
2022/05/25 09:08:07;;;;;;;10.27;7.03;;;;;;;;;;6143402;23;20355;-86
2022/05/25 09:10:37;;;;;;;7.75;5.90;;;;;;;;;;6131353;23;20006;-86
2022/05/25 09:13:09;;;;;;;7.60;5.00;;;;;;;;;;6131500;23;20001;-93
2022/05/25 09:16:15;;;;;;;7.77;5.63;;;;;;;;;;6131500;23;20025;-87
2022/05/25 09:18:29;;;;;;;6.70;6.00;;;;;;;;;;6157572;23;20008;-93
2022/05/25 09:20:56;;;;;;;5.97;5.38;;;;;;;;;;6131386;23;20033;-94
2022/05/25 09:23:22;;;;;;;11.80;7.25;;;;;;;;;;6130837;23;20005;-85
2022/05/25 09:25:48;;;;;;;5.65;5.15;;;;;;;;;;6131403;23;20012;-94
2022/05/25 09:28:19;;;;;;;8.60;5.70;;;;;;;;;;6132222;23;20002;-95
2022/05/25 09:30:48;;;;;;;8.23;5.72;;;;;;;;;;6131872;23;20020;-87
2022/05/25 09:33:20;;;;;;;3.40;1.90;;;;;;;;;;6131716;23;20029;-88
2022/05/25 09:35:46;;;;;;;;;;;;;;;;;;6131954;23;20040;-87
2022/05/25 09:38:14;;;;;;;3.50;2.00;;;;;;;;;;6131394;23;20362;-86
2022/05/25 09:41:01;;;;;;;6.20;2.22;;;;;;;;;;6131847;23;20060;-93
2022/05/25 09:43:30;;;;;;;3.20;1.80;;;;;;;;;;6155885;23;20013;-94
2022/05/25 09:45:58;;;;;;;3.83;3.00;;;;;;;;;;6131957;23;20144;-95
2022/05/25 09:48:26;;;;;;;4.20;3.30;;;;;;;;;;6131868;23;20002;-85
2022/05/25 09:50:54;;;;;;;6.78;4.35;;;;;;;;;;6131511;23;20005;-94
2022/05/25 09:53:23;;;;;;;4.35;2.70;;;;;;;;;;6131111;23;20060;-93
2022/05/25 09:55:53;;;;;;;3.92;2.28;;;;;;;;;;6131064;23;20497;-90
2022/05/25 09:58:29;;;;;;;2.38;1.70;;;;;;;;;;6131312;23;20012;-86
2022/05/25 10:01:00;;;;;;;2.25;1.10;;;;;;;;;;6131523;23;20382;-87
2022/05/25 10:03:35;;;;;;;3.45;1.85;;;;;;;;;;6131372;23;20051;-93
2022/05/25 10:06:16;;;;;;;1.40;1.00;;;;;;;;;;6131062;23;20454;-92
2022/05/25 10:08:42;;;;;;;1.90;0.82;;;;;;;;;;6131197;23;20466;-88
2022/05/25 10:11:29;;;;;;;2.38;0.80;;;;;;;;;;6157463;23;20334;-87
2022/05/25 10:13:57;;;;;;;2.47;0.70;;;;;;;;;;6132005;23;20009;-88
2022/05/25 10:16:25;;;;;;;1.67;0.68;;;;;;;;;;6131145;23;20014;-89
2022/05/25 10:18:52;;;;;;;2.42;0.90;;;;;;;;;;6130962;23;20001;-90
2022/05/25 10:21:29;;;;;;;1.95;0.60;;;;;;;;;;6130959;23;20013;-91
2022/05/25 10:23:57;;;;;;;1.95;0.90;;;;;;;;;;6146751;23;20030;-89
2022/05/25 10:26:26;;;;;;;2.15;0.50;;;;;;;;;;6137853;23;20002;-85
2022/05/25 10:29:02;;;;;;;1.30;0.70;;;;;;;;;;6131387;23;20005;-93
2022/05/25 10:37:10;;;;;;;2.50;0.60;;;;;;;;;;6157301;23;20351;-92
2022/05/25 10:39:37;;;;;;;3.40;0.82;;;;;;;;;;6130986;23;20005;-93
2022/05/25 10:42:03;;;;;;;2.08;0.98;;;;;;;;;;6131022;23;20060;-93
2022/05/25 10:44:35;;;;;;;1.92;1.10;;;;;;;;;;6130566;23;20012;-86
2022/05/25 10:47:01;;;;;;;1.50;0.90;;;;;;;;;;6131032;23;20435;-90
2022/05/25 10:49:33;;;;;;;3.05;1.10;;;;;;;;;;6130940;23;20236;-90
2022/05/25 10:52:08;;;;;;;1.63;1.10;;;;;;;;;;6131080;23;20011;-93
2022/05/25 10:54:44;;;;;;;1.50;1.10;;;;;;;;;;6131242;23;20036;-91
2022/05/25 10:57:29;;;;;;;1.92;1.10;;;;;;;;;;6133509;23;20012;-88
2022/05/25 11:00:05;;;;;;;2.55;1.00;;;;;;;;;;6134503;23;20006;-87
2022/05/25 11:02:49;;;;;;;2.75;1.10;;;;;;;;;;6131561;23;20037;-87
2022/05/25 11:05:19;;;;;;;2.33;1.40;;;;;;;;;;6130891;23;20076;-90
2022/05/25 11:07:47;;;;;;;3.20;1.42;;;;;;;;;;6131775;23;20049;-92
2022/05/25 11:10:32;;;;;;;3.38;1.60;;;;;;;;;;6132216;23;20416;-90
2022/05/25 11:13:13;;;;;;;1.80;1.20;;;;;;;;;;6130642;23;20012;-89
2022/05/25 11:15:46;;;;;;;2.97;1.30;;;;;;;;;;6130197;23;20076;-89
2022/05/25 11:18:15;;;;;;;1.70;1.30;;;;;;;;;;6131030;23;20012;-88
2022/05/25 11:20:53;;;;;;;1.95;1.52;;;;;;;;;;6130502;23;20016;-87
2022/05/25 11:23:22;;;;;;;1.98;1.30;;;;;;;;;;6131548;23;20025;-87
2022/05/25 11:26:03;;;;;;;1.88;1.38;;;;;;;;;;6130433;23;20001;-85
2022/05/25 11:28:29;;;;;;;2.05;1.40;;;;;;;;;;6130808;23;20006;-86
2022/05/25 11:31:14;;;;;;;1.67;1.13;;;;;;;;;;6130546;23;20012;-93
2022/05/25 11:33:50;;;;;;;1.65;1.10;;;;;;;;;;6130957;23;20064;-88
2022/05/25 11:36:37;;;;;;;1.60;1.10;;;;;;;;;;6132420;23;20013;-87
2022/05/25 11:39:18;;;;;;;1.40;0.90;;;;;;;;;;6130045;23;20088;-88
2022/05/25 11:41:44;;;;;;;1.35;0.80;;;;;;;;;;6131033;23;20009;-90
2022/05/25 11:44:20;;;;;;;1.52;0.80;;;;;;;;;;6131088;23;20032;-83
2022/05/25 11:46:50;;;;;;;1.42;0.80;;;;;;;;;;6130233;23;20040;-87
2022/05/25 11:49:37;;;;;;;1.50;0.70;;;;;;;;;;6157216;23;20338;-90
2022/05/25 11:52:22;;;;;;;0.98;0.60;;;;;;;;;;6130618;23;20001;-87
2022/05/25 11:55:08;;;;;;;1.80;0.80;;;;;;;;;;6130524;23;20013;-86
2022/05/25 11:57:53;;;;;;;1.13;0.73;;;;;;;;;;6132604;23;20404;-86
2022/05/25 12:00:37;;;;;;;0.80;0.57;;;;;;;;;;6132442;23;20016;-90
2022/05/25 12:03:03;;;;;;;1.10;0.60;;;;;;;;;;6132339;23;20024;-92
2022/05/25 12:05:51;;;;;;;1.83;0.85;;;;;;;;;;6158473;23;20016;-89
2022/05/25 12:08:35;;;;;;;3.08;0.93;;;;;;;;;;6131749;23;20028;-88
2022/05/25 12:11:14;;;;;;;1.17;0.70;;;;;;;;;;6132379;23;20313;-86
2022/05/25 12:13:44;;;;;;;0.85;0.50;;;;;;;;;;6138705;23;20037;-88
2022/05/25 12:16:13;;;;;;;1.23;0.65;;;;;;;;;;6132052;23;20371;-87
2022/05/25 12:18:46;;;;;;;0.77;0.50;;;;;;;;;;6132439;23;20002;-86
2022/05/25 12:21:14;;;;;;;1.13;0.40;;;;;;;;;;6132380;23;20013;-85
2022/05/25 12:23:44;;;;;;;1.40;0.30;;;;;;;;;;6132590;23;20002;-89
2022/05/25 12:26:14;;;;;;;1.75;0.52;;;;;;;;;;6132785;23;20010;-90
2022/05/25 12:28:42;;;;;;;0.98;0.50;;;;;;;;;;6133160;23;20060;-89
2022/05/25 12:31:11;;;;;;;1.35;0.50;;;;;;;;;;6133990;23;20009;-83
2022/05/25 12:33:41;;;;;;;2.10;0.50;;;;;;;;;;6131617;23;20036;-87
2022/05/25 12:36:11;;;;;;;5.38;0.60;;;;;;;;;;6131785;23;20018;-89
2022/05/25 12:38:39;;;;;;;1.92;0.60;;;;;;;;;;6131932;23;20005;-86
2022/05/25 12:41:24;;;;;;;1.73;0.50;;;;;;;;;;6158190;23;20009;-86
2022/05/25 12:43:52;;;;;;;3.08;0.60;;;;;;;;;;6131605;23;20001;-90
2022/05/25 12:49:10;;;;;;;1.13;0.70;;;;;;;;;;6157718;23;20048;-89
2022/05/25 12:51:43;;;;;;;1.55;0.70;;;;;;;;;;6131785;23;20017;-87
2022/05/25 12:54:25;;;;;;;1.85;0.65;;;;;;;;;;6131487;23;20088;-85
2022/05/25 12:56:52;;;;;;;3.38;0.90;;;;;;;;;;6130746;23;20040;-89
2022/05/25 12:59:27;;;;;;;1.90;0.85;;;;;;;;;;6131798;23;20009;-87
2022/05/25 13:02:13;;;;;;;1.20;0.70;;;;;;;;;;6131663;23;20009;-86
2022/05/25 13:04:48;;;;;;;5.18;0.88;;;;;;;;;;6151563;23;20001;-86
2022/05/25 13:07:20;;;;;;;3.00;0.88;;;;;;;;;;6156938;23;20093;-87
2022/05/25 13:09:46;;;;;;;6.70;1.00;;;;;;;;;;6131614;23;20001;-91
2022/05/25 13:12:31;;;;;;;2.13;0.90;;;;;;;;;;6131659;23;20013;-88
2022/05/25 13:14:58;;;;;;;2.72;0.60;;;;;;;;;;6130716;23;20009;-86
2022/05/25 13:17:41;;;;;;;2.90;0.73;;;;;;;;;;6131271;23;20017;-83
2022/05/25 13:20:07;;;;;;;1.63;0.80;;;;;;;;;;6130961;23;20423;-84
2022/05/25 13:22:33;;;;;;;8.13;1.00;;;;;;;;;;6131004;23;20009;-83
2022/05/25 13:25:12;;;;;;;2.10;0.77;;;;;;;;;;6131084;23;20320;-90
2022/05/25 13:27:41;;;;;;;5.45;1.05;;;;;;;;;;6130988;23;20033;-85
2022/05/25 13:30:13;;;;;;;2.97;1.00;;;;;;;;;;6131120;23;20473;-82
2022/05/25 13:32:51;;;;;;;5.50;1.10;;;;;;;;;;6131136;23;20001;-83
2022/05/25 13:35:23;;;;;;;1.85;1.27;;;;;;;;;;6130937;23;20013;-85
2022/05/25 13:38:08;;;;;;;1.85;1.08;;;;;;;;;;6130654;23;20064;-84
2022/05/25 13:40:40;;;;;;;2.33;1.50;;;;;;;;;;6130966;23;20037;-82
2022/05/25 13:43:09;;;;;;;3.33;1.20;;;;;;;;;;6131538;23;20005;-85
2022/05/25 13:45:40;;;;;;;1.00;0.70;;;;;;;;;;6157525;23;20016;-86
2022/05/25 13:48:10;;;;;;;3.25;1.10;;;;;;;;;;6131393;23;20308;-89
2022/05/25 13:50:38;;;;;;;7.13;1.17;;;;;;;;;;6131352;23;20486;-86
2022/05/25 13:53:12;;;;;;;4.93;1.33;;;;;;;;;;6131306;23;20016;-85
2022/05/25 13:55:43;;;;;;;5.13;1.20;;;;;;;;;;6131078;23;20013;-85
2022/05/25 13:58:17;;;;;;;1.20;0.80;;;;;;;;;;6130913;23;20331;-89
2022/05/25 14:00:46;;;;;;;3.40;1.33;;;;;;;;;;6130972;23;20017;-86
2022/05/25 14:03:16;;;;;;;3.53;1.23;;;;;;;;;;6130776;23;20089;-87
2022/05/25 14:05:45;;;;;;;3.45;1.40;;;;;;;;;;6130927;23;20006;-86
2022/05/25 14:11:22;;;;;;;5.75;0.80;;;;;;;;;;6161317;23;20072;-87
2022/05/25 14:13:49;;;;;;;2.83;0.50;;;;;;;;;;6130535;23;20342;-86
2022/05/25 14:16:17;;;;;;;2.85;0.80;;;;;;;;;;6130352;23;20040;-83
2022/05/25 14:18:43;;;;;;;3.72;0.63;;;;;;;;;;6129997;23;20009;-84
2022/05/25 14:21:23;;;;;;;2.47;0.77;;;;;;;;;;6130588;23;20010;-84
2022/05/25 14:23:49;;;;;;;5.15;1.02;;;;;;;;;;6156738;23;19997;-84
2022/05/25 14:26:22;;;;;;;2.55;0.70;;;;;;;;;;6130269;23;20044;-86
2022/05/25 14:28:48;;;;;;;2.93;0.40;;;;;;;;;;6131039;23;20343;-88
2022/05/25 14:31:15;;;;;;;2.53;0.60;;;;;;;;;;6156543;23;20002;-88
2022/05/25 14:33:42;;;;;;;1.63;0.50;;;;;;;;;;6130484;23;20006;-88
2022/05/25 14:36:08;;;;;;;3.47;0.60;;;;;;;;;;6129983;23;20351;-84
2022/05/25 14:38:38;;;;;;;3.95;0.57;;;;;;;;;;6130215;23;20080;-87
2022/05/25 14:41:20;;;;;;;1.33;0.40;;;;;;;;;;6130547;23;20055;-82
2022/05/25 14:43:46;;;;;;;1.45;0.32;;;;;;;;;;6130413;23;20009;-82
2022/05/25 14:46:18;;;;;;;0.82;0.40;;;;;;;;;;6134608;23;20006;-89
2022/05/25 14:48:55;;;;;;;1.45;0.50;;;;;;;;;;6132454;23;20093;-91
2022/05/25 14:51:31;;;;;;;1.05;0.50;;;;;;;;;;6133566;23;20016;-92
2022/05/25 14:54:30;;;;;;;1.00;0.40;;;;;;;;;;6130298;23;20009;-94
2022/05/25 14:57:03;;;;;;;1.00;0.30;;;;;;;;;;6010228;23;20080;-88
2022/05/25 14:59:33;;;;;;;4.57;0.70;;;;;;;;;;6010001;23;20007;-88
2022/05/25 15:02:01;;;;;;;1.45;0.60;;;;;;;;;;5986255;23;20011;-88
2022/05/25 15:04:34;;;;;;;2.88;0.70;;;;;;;;;;5986718;23;20106;-88
2022/05/25 15:07:01;;;;;;;3.33;0.70;;;;;;;;;;6076692;23;20029;-84
2022/05/25 15:09:38;;;;;;;1.75;0.90;;;;;;;;;;6130167;23;20443;-85
2022/05/25 15:12:07;;;;;;;3.65;0.90;;;;;;;;;;6156608;23;20005;-89
2022/05/25 15:20:05;;;;;;;3.53;1.45;;;;;;;;;;6157466;23;20100;-89
2022/05/25 15:22:34;;;;;;;1.65;1.20;;;;;;;;;;6131411;23;20002;-87
2022/05/25 15:25:02;;;;;;;3.00;1.42;;;;;;;;;;6131388;23;20423;-80
2022/05/25 15:27:32;;;;;;;2.22;1.17;;;;;;;;;;6130485;23;20040;-87
2022/05/25 15:30:00;;;;;;;2.40;1.30;;;;;;;;;;6131180;23;20001;-85
2022/05/25 15:32:26;;;;;;;2.00;1.30;;;;;;;;;;6132261;23;20009;-86